createdAt,value
2017-11-21T00:01:46.600Z,4.17
2017-11-21T00:07:50.106Z,4.23
2017-11-21T00:13:54.383Z,4.30
2017-11-21T00:19:57.952Z,4.38
2017-11-21T00:26:01.476Z,4.31
2017-11-21T00:32:05.006Z,4.41
2017-11-21T00:38:08.540Z,4.39
2017-11-21T00:44:12.048Z,4.39
2017-11-21T00:50:15.541Z,4.49
2017-11-21T00:56:19.049Z,4.62
2017-11-21T01:02:23.320Z,4.72
2017-11-21T01:08:26.824Z,4.76
2017-11-21T01:14:30.297Z,4.84
2017-11-21T01:20:33.824Z,4.91
2017-11-21T01:26:38.080Z,4.92
2017-11-21T01:32:41.588Z,4.94
2017-11-21T01:38:45.099Z,5.01
2017-11-21T01:44:49.372Z,5.06
2017-11-21T01:50:52.863Z,5.05
2017-11-21T01:56:56.362Z,5.08
2017-11-21T02:03:05.815Z,5.15
2017-11-21T02:09:10.078Z,5.35
2017-11-21T02:15:13.596Z,5.42
2017-11-21T02:21:17.168Z,5.45
2017-11-21T02:27:20.664Z,5.59
2017-11-21T02:33:24.175Z,5.67
2017-11-21T02:39:27.711Z,5.69
2017-11-21T02:45:31.233Z,5.77
2017-11-21T02:51:34.732Z,5.79
2017-11-21T03:04:12.958Z,5.88
2017-11-21T03:10:16.480Z,6.03
2017-11-21T03:16:20.001Z,6.09
2017-11-21T03:22:41.277Z,6.12
2017-11-21T03:28:44.776Z,6.23
2017-11-21T03:34:48.266Z,6.41
2017-11-21T03:40:52.580Z,6.58
2017-11-21T03:46:56.854Z,6.64
2017-11-21T03:53:00.361Z,6.73
2017-11-21T03:59:03.873Z,6.83
2017-11-21T04:05:08.155Z,6.90
2017-11-21T04:11:11.640Z,6.96
2017-11-21T04:17:15.243Z,7.05
2017-11-21T04:23:18.733Z,7.11
2017-11-21T04:29:22.241Z,7.16
2017-11-21T04:35:25.734Z,7.24
2017-11-21T04:41:30.005Z,7.30
2017-11-21T04:47:34.308Z,7.36
2017-11-21T04:53:37.813Z,7.46
2017-11-21T04:59:41.316Z,7.52
2017-11-21T05:05:44.798Z,7.59
2017-11-21T05:11:48.356Z,7.65
2017-11-21T05:17:51.914Z,7.69
2017-11-21T05:23:55.422Z,7.78
2017-11-21T05:29:59.015Z,7.82
2017-11-21T05:36:02.522Z,7.91
2017-11-21T05:42:06.027Z,7.96
2017-11-21T05:48:10.309Z,7.99
2017-11-21T05:54:13.877Z,8.01
2017-11-21T06:00:17.376Z,8.06
2017-11-21T06:06:20.922Z,8.10
2017-11-21T06:12:24.429Z,8.10
2017-11-21T06:18:27.940Z,8.15
2017-11-21T06:24:31.458Z,8.17
2017-11-21T06:30:35.732Z,8.23
2017-11-21T06:36:39.236Z,8.21
2017-11-21T06:42:42.766Z,8.20
2017-11-21T06:48:46.249Z,8.21
2017-11-21T06:54:49.800Z,8.21
2017-11-21T07:00:53.304Z,8.25
2017-11-21T07:06:57.591Z,8.26
2017-11-21T07:13:01.148Z,8.31
2017-11-21T07:19:04.640Z,8.31
2017-11-21T07:25:08.143Z,8.34
2017-11-21T07:31:11.649Z,8.40
2017-11-21T07:37:15.935Z,8.44
2017-11-21T07:43:19.434Z,8.45
2017-11-21T07:49:23.700Z,8.53
2017-11-21T07:55:27.213Z,8.60
2017-11-21T08:01:30.730Z,8.66
2017-11-21T08:07:34.992Z,8.87
2017-11-21T08:13:38.474Z,8.90
2017-11-21T08:19:41.971Z,8.93
2017-11-21T08:25:45.525Z,8.94
2017-11-21T08:31:49.018Z,9.03
2017-11-21T08:37:52.508Z,9.17
2017-11-21T08:43:56.022Z,9.27
2017-11-21T08:49:59.530Z,9.40
2017-11-21T08:56:03.054Z,9.47
2017-11-21T09:02:06.554Z,9.46
2017-11-21T09:08:10.044Z,9.51
2017-11-21T09:14:13.549Z,9.55
2017-11-21T09:20:17.821Z,9.57
2017-11-21T09:26:21.329Z,9.59
2017-11-21T09:32:24.804Z,9.64
2017-11-21T09:38:28.424Z,9.70
2017-11-21T09:44:32.036Z,9.70
2017-11-21T09:50:35.525Z,9.66
2017-11-21T09:56:39.020Z,9.62
2017-11-21T10:02:42.526Z,9.63
2017-11-21T10:08:46.034Z,9.61
2017-11-21T10:14:50.294Z,9.59
2017-11-21T10:20:53.809Z,9.63
2017-11-21T10:26:57.295Z,9.60
2017-11-21T10:33:01.154Z,9.66
2017-11-21T10:39:04.990Z,9.74
2017-11-21T10:45:09.483Z,9.70
2017-11-21T10:51:14.678Z,9.71
2017-11-21T10:57:18.663Z,9.74
2017-11-21T11:03:37.447Z,9.78
2017-11-21T11:09:41.226Z,9.81
2017-11-21T11:15:45.563Z,9.80
2017-11-21T11:21:50.930Z,9.81
2017-11-21T11:27:54.940Z,9.81
2017-11-21T11:34:01.323Z,9.87
2017-11-21T11:40:06.736Z,9.99
2017-11-21T11:46:11.438Z,10.18
2017-11-21T11:52:15.540Z,10.31
2017-11-21T11:58:19.643Z,10.42
2017-11-21T12:04:23.415Z,10.33
2017-11-21T12:10:28.197Z,10.22
2017-11-21T12:16:32.430Z,10.23
2017-11-21T12:22:36.115Z,10.25
2017-11-21T12:28:41.088Z,10.29
2017-11-21T12:34:46.640Z,10.35
2017-11-21T12:40:51.898Z,10.39
2017-11-21T12:46:56.627Z,10.42
2017-11-21T12:53:02.025Z,10.35
2017-11-21T12:59:06.691Z,10.39
2017-11-21T13:05:11.059Z,10.38
2017-11-21T13:11:15.610Z,10.37
2017-11-21T13:17:20.665Z,10.35
2017-11-21T13:23:26.053Z,10.33
2017-11-21T13:29:31.139Z,10.31
2017-11-21T13:48:35.054Z,10.04
2017-11-21T13:54:40.697Z,9.99
2017-11-21T14:00:45.191Z,9.95
2017-11-21T14:06:49.340Z,9.86
2017-11-21T14:12:53.590Z,9.87
2017-11-21T14:18:57.375Z,9.85
2017-11-21T14:25:02.647Z,9.86
2017-11-21T14:31:08.298Z,9.87
2017-11-21T14:37:13.051Z,9.86
2017-11-21T14:43:16.802Z,9.82
2017-11-21T14:49:21.260Z,9.80
2017-11-21T14:55:27.014Z,9.78
2017-11-21T15:01:32.841Z,9.77
2017-11-21T15:07:37.611Z,9.83
2017-11-21T15:13:41.287Z,9.80
2017-11-21T15:19:45.789Z,9.82
2017-11-21T15:25:52.412Z,9.82
2017-11-21T15:31:57.016Z,9.85
2017-11-21T15:38:03.227Z,9.85
2017-11-21T15:44:07.932Z,9.88
2017-11-21T15:50:13.815Z,9.88
2017-11-21T15:56:21.459Z,9.86
2017-11-21T16:02:29.218Z,9.89
2017-11-21T16:08:33.748Z,9.91
2017-11-21T16:14:37.982Z,9.91
2017-11-21T16:20:42.331Z,9.89
2017-11-21T16:26:47.991Z,10.00
2017-11-21T16:32:51.749Z,10.03
2017-11-21T16:38:55.848Z,10.02
2017-11-21T16:45:01.538Z,10.01
2017-11-21T16:51:08.097Z,10.06
2017-11-21T16:57:11.838Z,10.09
2017-11-21T17:03:15.471Z,10.13
2017-11-21T17:09:19.521Z,10.13
2017-11-21T17:15:23.956Z,10.14
2017-11-21T17:21:29.363Z,10.14
2017-11-21T17:27:33.335Z,10.13
2017-11-21T17:33:37.869Z,10.17
2017-11-21T17:39:42.989Z,10.18
2017-11-21T17:45:47.378Z,10.22
2017-11-21T17:51:51.776Z,10.24
2017-11-21T17:57:55.398Z,10.23
2017-11-21T18:04:02.148Z,10.25
2017-11-21T18:10:06.466Z,10.24
2017-11-21T18:16:11.507Z,10.24
2017-11-21T18:22:15.145Z,10.24
2017-11-21T18:28:19.756Z,10.25
2017-11-21T18:34:23.669Z,10.23
2017-11-21T18:40:28.292Z,10.33
2017-11-21T18:46:32.234Z,10.35
2017-11-21T18:52:36.902Z,10.41
2017-11-21T18:58:40.919Z,10.37
2017-11-21T19:04:44.748Z,10.37
2017-11-21T19:10:48.455Z,10.33
2017-11-21T19:16:53.629Z,10.31
2017-11-21T19:22:58.248Z,10.32
2017-11-21T19:29:02.651Z,10.33
2017-11-21T19:35:06.708Z,10.36
2017-11-21T19:41:12.894Z,10.34
2017-11-21T19:47:16.623Z,10.34
2017-11-21T19:53:20.705Z,10.30
2017-11-21T19:59:24.352Z,10.22
2017-11-21T20:05:28.532Z,10.21
2017-11-21T20:11:34.211Z,10.18
2017-11-21T20:33:53.458Z,10.00
2017-11-21T20:39:58.475Z,10.03
2017-11-21T20:46:02.473Z,10.04
2017-11-21T20:52:06.525Z,10.08
2017-11-21T20:58:11.231Z,10.07
2017-11-21T21:04:15.717Z,9.98
2017-11-21T21:10:19.809Z,9.92
2017-11-21T21:29:25.803Z,9.75
2017-11-21T21:35:30.798Z,9.75
2017-11-21T21:41:35.875Z,9.70
2017-11-21T21:47:40.412Z,9.72
2017-11-21T21:53:44.975Z,9.69
2017-11-21T21:59:48.570Z,9.63
2017-11-21T22:05:55.731Z,9.54
2017-11-21T22:12:01.142Z,9.52
2017-11-21T22:18:06.219Z,9.49
2017-11-21T22:37:11.098Z,9.23
2017-11-21T22:43:16.504Z,9.22
2017-11-21T22:49:21.568Z,9.17
2017-11-21T22:55:26.235Z,9.19
2017-11-21T23:01:34.332Z,9.21
2017-11-21T23:07:40.746Z,9.21
2017-11-21T23:26:44.486Z,8.95
2017-11-21T23:32:48.332Z,8.93
2017-11-21T23:38:54.229Z,8.98
2017-11-21T23:45:00.761Z,9.00
2017-11-21T23:51:07.147Z,8.94
2017-11-21T23:57:12.092Z,8.92
